
Distance (Route):
Temperature : -23.6°C
Humidity : 73.8%
Pressure : 0hPa| Receiver | Frames | First received | Last received |
|---|---|---|---|
| DJALKS | 27 | 2026-08-30 11:19:27 | 2026-08-30 11:38:15 |
| Receiver | Date | Latitude | Longitude | Direction | Speed | Altitude | Climb | Temperature | Humidity | Pressure | Voltage | Killtimer | Uptime | BKT | XDATA |
|---|---|---|---|---|---|---|---|---|---|---|---|---|---|---|---|
| DJALKS | 2026-08-30 11:38:15 | 42.66160 | -83.13795 | 115° | 88km/h | 8299m | 3.4m/s | -23.6°C | 73.8% | 0hPa | 0V | 00:00:00 | 00:00:00 | 00:00:00 | |
| DJALKS | 2026-08-30 11:37:50 | 42.66400 | -83.14458 | 114° | 78km/h | 8168m | 5.6m/s | -23.1°C | 72.2% | 0hPa | 0V | 00:00:00 | 00:00:00 | 00:00:00 | |
| DJALKS | 2026-08-30 11:37:30 | 42.66579 | -83.14950 | 113° | 75km/h | 8065m | 4.1m/s | -22.2°C | 68.4% | 0hPa | 0V | 00:00:00 | 00:00:00 | 00:00:00 | |
| DJALKS | 2026-08-30 11:37:08 | 42.66781 | -83.15494 | 119° | 93km/h | 7953m | 6.0m/s | -21.3°C | 68.0% | 0hPa | 0V | 00:00:00 | 00:00:00 | 00:00:00 | |
| DJALKS | 2026-08-30 11:36:48 | 42.66970 | -83.16000 | 121° | 80km/h | 7854m | 5.2m/s | -20.5°C | 64.2% | 0hPa | 0V | 00:00:00 | 00:00:00 | 00:00:00 | |
| DJALKS | 2026-08-30 11:36:25 | 42.67177 | -83.16604 | 113° | 84km/h | 7730m | 5.1m/s | -19.5°C | 76.0% | 0hPa | 0V | 00:00:00 | 00:00:00 | 00:00:00 | |
| DJALKS | 2026-08-30 11:33:22 | 42.68563 | -83.20967 | 115° | 64km/h | 6923m | 3.4m/s | -15.2°C | 85.1% | 0hPa | 0V | 00:00:00 | 00:00:00 | 00:00:00 | |
| DJALKS | 2026-08-30 11:32:37 | 42.68820 | -83.21996 | 107° | 73km/h | 6739m | 4.1m/s | -13.8°C | 80.9% | 0hPa | 0V | 00:00:00 | 00:00:00 | 00:00:00 | |
| DJALKS | 2026-08-30 11:31:55 | 42.69056 | -83.23043 | 112° | 77km/h | 6565m | 3.5m/s | -12.4°C | 82.7% | 0hPa | 0V | 00:00:00 | 00:00:00 | 00:00:00 | |
| DJALKS | 2026-08-30 11:31:29 | 42.69183 | -83.23669 | 108° | 75km/h | 6468m | 2.8m/s | -11.9°C | 74.6% | 0hPa | 0V | 00:00:00 | 00:00:00 | 00:00:00 | |
| DJALKS | 2026-08-30 11:31:10 | 42.69264 | -83.24142 | 104° | 69km/h | 6397m | 3.7m/s | -11.4°C | 78.9% | 0hPa | 0V | 00:00:00 | 00:00:00 | 00:00:00 | |
| DJALKS | 2026-08-30 11:30:49 | 42.69343 | -83.24595 | 105° | 71km/h | 6331m | 2.7m/s | -11.0°C | 84.9% | 0hPa | 0V | 00:00:00 | 00:00:00 | 00:00:00 | |
| DJALKS | 2026-08-30 11:30:29 | 42.69418 | -83.25062 | 101° | 68km/h | 6257m | 3.3m/s | -10.6°C | 92.1% | 0hPa | 0V | 00:00:00 | 00:00:00 | 00:00:00 | |
| DJALKS | 2026-08-30 11:30:06 | 42.69502 | -83.25554 | 111° | 69km/h | 6167m | 5.5m/s | -10.0°C | 97.2% | 0hPa | 0V | 00:00:00 | 00:00:00 | 00:00:00 | |
| DJALKS | 2026-08-30 11:29:45 | 42.69604 | -83.26031 | 110° | 62km/h | 6079m | 5.8m/s | -9.3°C | 93.1% | 0hPa | 0V | 00:00:00 | 00:00:00 | 00:00:00 | |
| DJALKS | 2026-08-30 11:26:36 | 42.70504 | -83.30039 | 114° | 77km/h | 5385m | 4.8m/s | -5.7°C | 0% | 0hPa | 0V | 00:00:00 | 00:00:00 | 00:00:00 | |
| DJALKS | 2026-08-30 11:26:16 | 42.70672 | -83.30416 | 124° | 69km/h | 5287m | 3.9m/s | -5.2°C | 0% | 0hPa | 0V | 00:00:00 | 00:00:00 | 00:00:00 | |
| DJALKS | 2026-08-30 11:25:55 | 42.70806 | -83.30810 | 129° | 51km/h | 5198m | 4.8m/s | -4.7°C | 0% | 0hPa | 0V | 00:00:00 | 00:00:00 | 00:00:00 | |
| DJALKS | 2026-08-30 11:25:34 | 42.70972 | -83.31197 | 109° | 53km/h | 5102m | 5.0m/s | -4.2°C | 0% | 0hPa | 0V | 00:00:00 | 00:00:00 | 00:00:00 | |
| DJALKS | 2026-08-30 11:25:06 | 42.71136 | -83.31674 | 102° | 53km/h | 4976m | 5.6m/s | -3.2°C | 0% | 0hPa | 0V | 00:00:00 | 00:00:00 | 00:00:00 | |
| DJALKS | 2026-08-30 11:24:46 | 42.71242 | -83.32062 | 109° | 68km/h | 4885m | 3.9m/s | 0°C | 0% | 0hPa | 0V | 00:00:00 | 00:00:00 | 00:00:00 | |
| DJALKS | 2026-08-30 11:24:24 | 42.71345 | -83.32470 | 94° | 58km/h | 4800m | 3.4m/s | 0°C | 0% | 0hPa | 0V | 00:00:00 | 00:00:00 | 00:00:00 | |
| DJALKS | 2026-08-30 11:22:38 | 42.71704 | -83.34382 | 102° | 71km/h | 4380m | 3.5m/s | 0°C | 0% | 0hPa | 0V | 00:00:00 | 00:00:00 | 00:00:00 | |
| DJALKS | 2026-08-30 11:21:39 | 42.71886 | -83.35503 | 114° | 51km/h | 4137m | 4.4m/s | 0°C | 0% | 0hPa | 0V | 00:00:00 | 00:00:00 | 00:00:00 | |
| DJALKS | 2026-08-30 11:20:32 | 42.72104 | -83.36713 | 103° | 49km/h | 3845m | 5.3m/s | 0°C | 0% | 0hPa | 0V | 00:00:00 | 00:00:00 | 00:00:00 | |
| DJALKS | 2026-08-30 11:20:09 | 42.72167 | -83.37136 | 105° | 58km/h | 3733m | 4.3m/s | 0°C | 0% | 0hPa | 0V | 00:00:00 | 00:00:00 | 00:00:00 | |
| DJALKS | 2026-08-30 11:19:27 | 42.72274 | -83.37898 | 92° | 47km/h | 3540m | 3.0m/s | 0°C | 0% | 0hPa | 0V | 00:00:00 | 00:00:00 | 00:00:00 |